Thursday, October 02, 2014
14:36 UTC
  |  Log In   |  Register Free
Airport Search:

Olympia Regional Airport
(KOLM)

Airport information sponsored by:
Glacier Jet Center at Olympia Regional (KOLM), Olympia, WA
FAA data valid effective September 18, 2014 - November 13, 2014 (unless otherwise noted).

 
 
 
 
 
 
 
 
 
 
 
 
 
 

Current Aviation Weather for Olympia Regional Airport (KOLM)

The most recent METAR observation for KOLM was updated at: 1414
METAR Summary (Translated METAR)
KOLM
021405Z AUTO 00000KT 9SM SCT015 04/04 A3027 RMK AO2 T00440039
KGRF
021358Z AUTO 12002KT 10SM CLR 06/06 A3026 RMK AO2 SLP252 T00610057 PWINO $
(14.7 nm NE from KOLM)
KCLS
021355Z AUTO 00000KT 10SM SCT004 BKN120 07/07 A3026 RMK AO2
(17.9 nm SW from KOLM)
TAF Summary (Translated TAF)
KOLM
021328Z 0213/0312 00000KT 3SM BR BKN014 TEMPO 0213/0217 1SM BR SCT002 BKN050 FM021700 VRB03KT P6SM SCT080 SCT150 TEMPO 0217/0219 3SM BR BKN025 FM030900 00000KT 2SM BR SCT002 SCT050
KGRF
(14.7 nm NE from KOLM)
0213/0319 03006KT 9999 SCT120 QNH3022INS BECMG 0223/0224 02009KT 9999 BKN100 QNH3024INS BECMG 0312/0313 03001KT 4800 BR FEW090 QNH3027INS TX17/0302Z TN01/0314Z
  Airport Weather Conditions for KOLM

 Current Weather at OLM
40° F
Fog/Mist
North winds at 0.0 mph
OLM NOAA Radar

Pressure: 30.27 in
Humidity: 93%
Wind: Calm
Dew Point: 37.9°F
Visibility: 1.25 mi


Airport Weather Forecast for KOLM

Translated METAR and TAF for KOLM
Translated METAR for KOLM (1431 UTC 02 October 2014)
found at http://aviationweather.gov/adds/metars/
 
METAR text: KOLM 021428Z AUTO 00000KT 4SM BR SCT015 04/03 A3027 RMK AO2 T00390033
Conditions at: KOLM (OLYMPIA , WA, US) observed 1428 UTC 02 October 2014
Temperature: 3.9°C (39°F)
Dewpoint: 3.3°C (38°F) [RH = 96%]
Pressure (altimeter): 30.27 inches Hg (1025.1 mb)
Winds: calm
Visibility: 4 miles (6 km)
Ceiling: at least 12,000 feet AGL
Clouds: scattered clouds at 1500 feet AGL
Weather: BR  (mist)
Translated TAF for KOLM
Forecast for: KOLM (OLYMPIA , WA, US)
TAF Text: KOLM 021427Z 0214/0312 00000KT P6SM MIFG SCT150
Forecast period: 1400 to 1600 UTC 02 October 2014
Forecast type: FROM: standard forecast or significant change
Winds: calm
Visibility: 6 or more miles (10+ km)
Clouds: scattered clouds at 15000 feet AGL
Weather: MIFG  (shallow fog)
TAF Text: TEMPO 0214/0215 3SM BCFG SCT001 SCT150
Forecast period: 1400 to 1500 UTC 02 October 2014
Forecast type: TEMPORARY: The following changes expected for less than half the time period
Visibility: 3 miles (5 km)
Clouds: scattered clouds at 100 feet AGL
scattered clouds at 15000 feet AGL
Weather: BCFG  (patches of fog)
TAF Text: FM021600 VRB03KT P6SM SCT050 SCT150
Forecast period: 1600 UTC 02 October 2014 to 0900 UTC 03 October 2014
Forecast type: FROM: standard forecast or significant change
Winds: variable direction winds at 3 MPH (3 knots; 1.6 m/s)
Visibility: 6 or more miles (10+ km)
Clouds: scattered clouds at 5000 feet AGL
scattered clouds at 15000 feet AGL
Weather: no significant weather forecast for this period
TAF Text: FM030900 00000KT 2SM BR SCT002 SCT050
Forecast period: 0900 to 1200 UTC 03 October 2014
Forecast type: FROM: standard forecast or significant change
Winds: calm
Visibility: 2.00 miles (3.22 km)
Clouds: scattered clouds at 200 feet AGL
scattered clouds at 5000 feet AGL
Weather: BR  (mist)

Find All Airport Services Find A Hotel Find A Rental Car Find A Golf Course Find A Restaurant $100 Hamburger



FBO's on the Field
FBO Company Facility Photos Services Transportation Aviation Fuel Prices: Prices include tax
Catering Weather Repair Courtesy Rental Type 100LL JetA JetA+ MOGAS 8087
 
Glacier Jet Center

Glacier Jet Center logo
This FBO has not yet been rated
FS:
Last Updated: Sep-19
Login to update fuel prices
SS:
Contact Glacier Jet CenterMore FBO Information
 
Jorgensen Air Service

Jorgensen Air Service logo
Currently rated 4.7 by 3 people
FS:
Last Updated: Sep-17
Login to update fuel prices
SS:
Contact Jorgensen Air ServiceMore FBO Information
 
Add another FBO Facility Photos Catering Weather Repair Courtesy Rental Type 100LL JetA JetA+ MOGAS 8087
Services Transportation Aviation Fuel Prices: Prices include tax


model-print
model-print
model-print
model-print